CDT,Max TemperatureF,Mean TemperatureF,Min TemperatureF,Max Dew PointF,MeanDew PointF,Min DewpointF,Max Humidity, Mean Humidity, Min Humidity, Max Sea Level PressureIn, Mean Sea Level PressureIn, Min Sea Level PressureIn, Max VisibilityMiles, Mean VisibilityMiles, Min VisibilityMiles, Max Wind SpeedMPH, Mean Wind SpeedMPH, Max Gust SpeedMPH,PrecipitationIn, CloudCover, Events, WindDirDegrees
2012-9-1,78,60,41,50,45,41,100,65,26,30.24,30.19,30.12,10,10,7,10,2,17,0.00,0,,90
2012-9-2,80,63,46,57,51,46,100,64,32,30.14,30.05,29.96,10,10,10,9,4,18,0.00,0,,150
2012-9-3,84,72,55,64,58,52,100,65,40,29.99,29.93,29.88,10,10,10,13,4,17,0.00,2,,268
2012-9-4,82,65,48,68,59,48,100,78,42,29.94,29.88,29.79,10,7,0,9,2,,0.00,2,Fog,180
2012-9-5,68,60,51,64,57,50,100,88,52,29.87,29.83,29.80,10,8,0,13,3,21,0.27,4,Fog-Rain,267
2012-9-6,75,60,44,55,47,39,100,71,29,29.96,29.92,29.87,10,8,0,15,3,21,0.03,4,Fog-Rain,274
2012-9-7,62,55,48,55,50,41,100,86,51,29.96,29.91,29.88,10,10,5,15,4,22,0.19,6,Rain,304
2012-9-8,60,53,46,54,49,41,100,90,55,29.94,29.85,29.78,10,10,5,13,6,18,0.13,6,Rain,295
2012-9-9,64,52,41,52,45,39,100,78,40,30.14,30.09,29.94,10,9,0,14,4,17,0.00,4,Fog-Rain,329
2012-9-10,73,54,35,50,43,36,100,67,33,30.15,30.06,29.96,10,8,0,16,4,21,0.00,1,Fog,207
2012-9-11,78,66,55,52,48,46,72,51,32,29.97,29.91,29.83,10,10,10,14,7,24,0.00,0,,206
2012-9-12,69,58,48,54,46,37,94,65,39,30.20,30.07,29.90,10,10,10,16,8,23,0.03,5,Rain,260
2012-9-13,64,50,37,46,38,27,100,65,27,30.30,30.25,30.20,10,10,10,16,6,25,0.00,2,Rain,271
2012-9-14,62,50,37,41,38,36,100,70,37,30.33,30.30,30.28,10,10,7,15,3,18,0.00,2,,317
2012-9-15,71,52,32,46,40,32,100,68,35,30.33,30.19,30.01,10,9,0,9,2,,0.00,0,Fog,182
2012-9-16,77,64,51,54,45,37,77,52,24,30.00,29.92,29.86,10,10,10,17,7,26,0.00,2,,226
2012-9-17,55,48,41,54,48,41,100,95,72,29.93,29.88,29.84,10,9,4,12,5,,0.22,8,Rain,330
2012-9-18,46,38,28,41,34,28,100,86,57,29.96,29.92,29.89,10,8,0,14,5,24,0.01,6,Fog-Rain,323
2012-9-19,53,40,28,50,39,28,100,89,61,29.94,29.75,29.62,10,9,1,15,4,30,0.20,6,Rain,207
2012-9-20,53,44,35,46,43,36,100,91,62,29.84,29.76,29.68,10,9,1,18,9,25,0.05,6,Rain,265
2012-9-21,51,42,32,43,38,32,100,87,54,29.81,29.77,29.73,10,8,1,21,4,25,0.32,6,Rain,262
2012-9-22,50,41,32,43,34,28,100,84,46,30.11,29.96,29.73,10,9,0,18,6,34,0.02,6,Fog-Rain,327
2012-9-23,50,40,30,37,33,30,100,78,47,30.18,30.14,30.09,10,10,5,15,6,22,0.01,5,Rain,296
2012-9-24,68,50,32,37,32,28,100,58,26,30.09,29.83,29.63,10,10,10,24,9,36,0.00,2,,247
2012-9-25,59,46,32,41,35,32,100,74,36,29.96,29.88,29.82,10,9,1,14,3,16,0.00,3,,16
2012-9-26,53,40,26,39,33,27,100,83,47,30.23,30.10,29.95,10,8,0,10,2,,0.00,4,Fog,353
2012-9-27,60,43,26,43,33,27,100,77,34,30.31,30.24,30.18,10,8,0,9,1,,0.00,2,Fog,241
2012-9-28,66,48,30,41,34,30,100,71,28,30.20,30.16,30.10,10,9,1,10,2,,0.00,0,,270
2012-9-29,68,50,32,41,36,27,100,68,21,30.11,30.08,30.05,10,9,0,12,2,18,0.00,0,Fog,33
2012-9-30,64,47,30,48,35,30,100,76,30,30.07,30.01,29.94,10,7,0,7,1,,0.00,3,Fog-Snow,94